Time;durP1;ratioP1;P1;durP2;ratioP2;P2;SDS_P1;SDS_P2;PMS_P1;PMS_P2;Temp;Humidity;BMP_temperature;BMP_pressure;BME280_temperature;BME280_humidity;BME280_pressure;Samples;Min_cycle;Max_cycle;Signal;HPM_P1;HPM_P2
2022/08/01 00:01:48;;;;;;;1.87;1.50;;;;;;;;;;5092611;28;20441;-72
2022/08/01 00:04:16;;;;;;;1.87;1.40;;;;;;;;;;5093643;28;20437;-72
2022/08/01 00:06:44;;;;;;;1.47;1.27;;;;;;;;;;5093514;28;20471;-71
2022/08/01 00:09:11;;;;;;;1.67;1.13;;;;;;;;;;5093977;28;20437;-71
2022/08/01 00:11:38;;;;;;;1.50;1.40;;;;;;;;;;5092895;28;20799;-71
2022/08/01 00:14:05;;;;;;;2.20;1.20;;;;;;;;;;5094135;28;20810;-71
2022/08/01 00:16:33;;;;;;;2.27;1.60;;;;;;;;;;5093898;28;20783;-69
2022/08/01 00:19:00;;;;;;;2.30;1.30;;;;;;;;;;5093443;28;20460;-71
2022/08/01 00:21:27;;;;;;;1.57;1.47;;;;;;;;;;5093127;28;20437;-71
2022/08/01 00:23:55;;;;;;;2.13;1.70;;;;;;;;;;5092906;28;20480;-71
2022/08/01 00:26:23;;;;;;;1.43;1.27;;;;;;;;;;5093821;28;20917;-71
2022/08/01 00:28:50;;;;;;;2.00;1.50;;;;;;;;;;5092547;28;20472;-71
2022/08/01 00:31:17;;;;;;;1.73;1.63;;;;;;;;;;5093033;28;20524;-72
2022/08/01 00:33:44;;;;;;;1.83;1.57;;;;;;;;;;5092580;28;20540;-70
2022/08/01 00:36:11;;;;;;;2.17;1.27;;;;;;;;;;5093249;28;20760;-72
2022/08/01 00:38:38;;;;;;;1.83;1.60;;;;;;;;;;5092740;28;20452;-70
2022/08/01 00:41:07;;;;;;;1.43;1.33;;;;;;;;;;5093060;28;20452;-70
2022/08/01 00:43:34;;;;;;;1.33;1.23;;;;;;;;;;5093210;28;20580;-70
2022/08/01 00:46:01;;;;;;;2.10;1.70;;;;;;;;;;5093113;28;20443;-71
2022/08/01 00:48:28;;;;;;;2.37;1.67;;;;;;;;;;5092895;28;20449;-71
2022/08/01 00:50:55;;;;;;;1.73;1.47;;;;;;;;;;5092240;28;21087;-71
2022/08/01 00:53:22;;;;;;;2.27;1.03;;;;;;;;;;5093124;28;20758;-72
2022/08/01 00:55:50;;;;;;;5.00;1.83;;;;;;;;;;5092422;28;20523;-72
2022/08/01 00:58:19;;;;;;;1.40;1.30;;;;;;;;;;5092562;28;20924;-71
2022/08/01 01:00:46;;;;;;;1.60;1.50;;;;;;;;;;5091848;28;20440;-72
2022/08/01 01:03:13;;;;;;;3.57;1.90;;;;;;;;;;5092302;28;20483;-71
2022/08/01 01:05:43;;;;;;;1.50;1.23;;;;;;;;;;5092402;28;20865;-70
2022/08/01 01:08:14;;;;;;;3.10;1.57;;;;;;;;;;5092829;28;20927;-71
2022/08/01 01:10:43;;;;;;;1.93;1.50;;;;;;;;;;5091913;28;20433;-70
2022/08/01 01:13:12;;;;;;;2.00;1.90;;;;;;;;;;5092049;28;20453;-71
2022/08/01 01:15:43;;;;;;;1.60;1.50;;;;;;;;;;5091643;28;20455;-71
2022/08/01 01:18:11;;;;;;;1.67;1.57;;;;;;;;;;5092370;28;20437;-71
2022/08/01 01:20:40;;;;;;;1.80;1.47;;;;;;;;;;5091909;28;20536;-71
2022/08/01 01:23:13;;;;;;;1.63;1.47;;;;;;;;;;5092718;28;20550;-71
2022/08/01 01:25:42;;;;;;;1.57;1.20;;;;;;;;;;5091846;28;20524;-71
2022/08/01 01:28:14;;;;;;;2.03;1.77;;;;;;;;;;5092567;28;20448;-71
2022/08/01 01:30:44;;;;;;;1.60;1.50;;;;;;;;;;5091458;28;20995;-71
2022/08/01 01:33:12;;;;;;;2.50;1.90;;;;;;;;;;5092166;28;20453;-71
2022/08/01 01:35:43;;;;;;;2.30;1.70;;;;;;;;;;5091211;28;20982;-70
2022/08/01 01:38:15;;;;;;;1.77;1.67;;;;;;;;;;5092274;28;20510;-71
2022/08/01 01:40:43;;;;;;;2.27;1.67;;;;;;;;;;5090847;28;20443;-72
2022/08/01 01:43:12;;;;;;;4.23;1.60;;;;;;;;;;5092124;28;20503;-70
2022/08/01 01:45:40;;;;;;;1.97;1.77;;;;;;;;;;5091200;28;20932;-70
2022/08/01 01:48:09;;;;;;;2.17;1.40;;;;;;;;;;5091927;28;20766;-70
2022/08/01 01:50:37;;;;;;;2.73;1.37;;;;;;;;;;5090938;28;20441;-70
2022/08/01 01:53:05;;;;;;;3.10;1.70;;;;;;;;;;5092302;28;20440;-71
2022/08/01 01:55:33;;;;;;;2.27;1.70;;;;;;;;;;5092059;28;20432;-71
2022/08/01 01:58:01;;;;;;;1.73;1.53;;;;;;;;;;5091600;28;20455;-71
2022/08/01 02:00:28;;;;;;;2.27;2.07;;;;;;;;;;5091535;28;20437;-71
2022/08/01 02:02:57;;;;;;;2.83;1.40;;;;;;;;;;5091046;28;20484;-70
2022/08/01 02:05:26;;;;;;;2.70;1.80;;;;;;;;;;5091728;28;20433;-71
2022/08/01 02:07:54;;;;;;;3.07;2.20;;;;;;;;;;5091097;28;20440;-70
2022/08/01 02:10:22;;;;;;;2.07;1.70;;;;;;;;;;5091433;28;20765;-71
2022/08/01 02:12:50;;;;;;;3.00;2.37;;;;;;;;;;5090883;28;20940;-71
2022/08/01 02:15:18;;;;;;;2.17;1.87;;;;;;;;;;5091757;28;20437;-72
2022/08/01 02:17:48;;;;;;;2.30;1.77;;;;;;;;;;5090633;28;20440;-70
2022/08/01 02:20:16;;;;;;;2.70;1.53;;;;;;;;;;5091284;28;20520;-72
2022/08/01 02:22:48;;;;;;;2.63;1.70;;;;;;;;;;5090462;28;20571;-70
2022/08/01 02:25:19;;;;;;;2.07;1.70;;;;;;;;;;5091534;28;20916;-71
2022/08/01 02:27:48;;;;;;;2.87;2.10;;;;;;;;;;5091192;28;20520;-70
2022/08/01 02:30:16;;;;;;;2.07;1.87;;;;;;;;;;5091539;28;20524;-72
2022/08/01 02:32:45;;;;;;;1.50;1.40;;;;;;;;;;5092796;28;20456;-71
2022/08/01 02:35:15;;;;;;;1.97;1.77;;;;;;;;;;5094130;28;20469;-71
2022/08/01 02:37:42;;;;;;;2.10;1.60;;;;;;;;;;5092346;28;20441;-71
2022/08/01 02:40:12;;;;;;;1.67;1.40;;;;;;;;;;5093864;28;20459;-72
2022/08/01 02:42:40;;;;;;;2.00;1.70;;;;;;;;;;5092324;28;20452;-71
2022/08/01 02:45:08;;;;;;;2.00;1.80;;;;;;;;;;5091481;28;20437;-70
2022/08/01 02:47:37;;;;;;;2.80;2.20;;;;;;;;;;5090592;28;20445;-69
2022/08/01 02:50:07;;;;;;;2.37;1.80;;;;;;;;;;5091082;28;20519;-72
2022/08/01 02:52:36;;;;;;;1.73;1.63;;;;;;;;;;5092985;28;20785;-71
2022/08/01 02:55:03;;;;;;;1.67;1.43;;;;;;;;;;5095077;28;20935;-70
2022/08/01 02:57:32;;;;;;;3.03;2.20;;;;;;;;;;5095427;28;20443;-71
2022/08/01 03:00:00;;;;;;;2.40;2.20;;;;;;;;;;5094227;28;20532;-71
2022/08/01 03:02:27;;;;;;;2.07;1.53;;;;;;;;;;5094850;28;20756;-71
2022/08/01 03:04:55;;;;;;;1.63;1.47;;;;;;;;;;5094550;28;20847;-71
2022/08/01 03:07:23;;;;;;;2.90;1.70;;;;;;;;;;5095307;28;20441;-71
2022/08/01 03:09:51;;;;;;;2.63;1.90;;;;;;;;;;5094187;28;20441;-71
2022/08/01 03:12:19;;;;;;;3.87;2.43;;;;;;;;;;5095089;28;20543;-71
2022/08/01 03:14:49;;;;;;;1.90;1.70;;;;;;;;;;5094363;28;20830;-70
2022/08/01 03:17:17;;;;;;;1.60;1.50;;;;;;;;;;5094791;28;20437;-71
2022/08/01 03:19:46;;;;;;;2.73;1.80;;;;;;;;;;5093895;28;20444;-70
2022/08/01 03:22:15;;;;;;;2.50;1.77;;;;;;;;;;5094599;28;20932;-71
2022/08/01 03:24:43;;;;;;;2.93;2.10;;;;;;;;;;5093859;28;21048;-72
2022/08/01 03:27:10;;;;;;;2.33;1.70;;;;;;;;;;5094769;28;20599;-71
2022/08/01 03:29:38;;;;;;;2.33;1.67;;;;;;;;;;5093835;28;20459;-70
2022/08/01 03:32:07;;;;;;;2.67;1.70;;;;;;;;;;5094334;28;20528;-71
2022/08/01 03:34:35;;;;;;;2.90;2.27;;;;;;;;;;5094396;28;20472;-71
2022/08/01 03:37:04;;;;;;;2.20;1.53;;;;;;;;;;5094533;28;20523;-71
2022/08/01 03:39:33;;;;;;;2.47;1.80;;;;;;;;;;5094904;28;20802;-71
2022/08/01 03:42:03;;;;;;;2.77;2.37;;;;;;;;;;5093334;28;20441;-70
2022/08/01 03:44:32;;;;;;;2.20;1.73;;;;;;;;;;5094374;28;20555;-70
2022/08/01 03:47:02;;;;;;;2.10;1.90;;;;;;;;;;5093771;28;20446;-71
2022/08/01 03:49:32;;;;;;;2.60;2.40;;;;;;;;;;5094289;28;20444;-70
2022/08/01 03:52:00;;;;;;;1.67;1.57;;;;;;;;;;5093373;28;20457;-71
2022/08/01 03:54:30;;;;;;;2.07;1.67;;;;;;;;;;5094090;28;20533;-71
2022/08/01 03:56:57;;;;;;;3.27;2.27;;;;;;;;;;5093527;28;20531;-70
2022/08/01 03:59:25;;;;;;;3.60;2.13;;;;;;;;;;5094324;28;20786;-70
2022/08/01 04:01:52;;;;;;;2.07;1.73;;;;;;;;;;5093070;28;20463;-70
2022/08/01 04:04:19;;;;;;;2.80;1.97;;;;;;;;;;5093258;28;20480;-72
2022/08/01 04:06:50;;;;;;;3.03;2.20;;;;;;;;;;5093381;28;20519;-71
2022/08/01 04:09:18;;;;;;;2.80;2.27;;;;;;;;;;5093685;28;20949;-70
2022/08/01 04:11:45;;;;;;;2.67;1.93;;;;;;;;;;5092944;28;20437;-71
2022/08/01 04:14:12;;;;;;;3.00;2.47;;;;;;;;;;5093789;28;20753;-71
2022/08/01 04:16:39;;;;;;;2.10;1.53;;;;;;;;;;5092836;28;20456;-70
2022/08/01 04:19:07;;;;;;;2.60;1.60;;;;;;;;;;5093669;28;20432;-70
2022/08/01 04:21:35;;;;;;;2.87;2.30;;;;;;;;;;5093298;28;20447;-71
2022/08/01 04:24:06;;;;;;;2.10;1.90;;;;;;;;;;5093738;28;20563;-70
2022/08/01 04:26:34;;;;;;;2.30;1.97;;;;;;;;;;5093833;28;20455;-71
2022/08/01 04:29:02;;;;;;;1.90;1.80;;;;;;;;;;5093170;28;20912;-70
2022/08/01 04:31:30;;;;;;;2.83;2.53;;;;;;;;;;5092953;28;20472;-71
2022/08/01 04:33:59;;;;;;;3.90;2.10;;;;;;;;;;5091982;28;20480;-70
2022/08/01 04:36:26;;;;;;;2.20;2.00;;;;;;;;;;5093096;28;20433;-70
2022/08/01 04:38:56;;;;;;;3.00;2.00;;;;;;;;;;5092846;28;20448;-70
2022/08/01 04:41:24;;;;;;;2.47;1.70;;;;;;;;;;5092926;28;20521;-72
2022/08/01 04:43:52;;;;;;;2.13;1.87;;;;;;;;;;5092638;28;20476;-71
2022/08/01 04:46:19;;;;;;;2.57;1.93;;;;;;;;;;5093296;28;20531;-70
2022/08/01 04:48:47;;;;;;;2.17;1.90;;;;;;;;;;5092488;28;20463;-71
2022/08/01 04:51:16;;;;;;;2.63;1.90;;;;;;;;;;5092814;28;20468;-71
2022/08/01 04:53:43;;;;;;;1.23;1.13;;;;;;;;;;5092557;28;20475;-71
2022/08/01 04:56:12;;;;;;;4.67;1.83;;;;;;;;;;5093006;28;20490;-71
2022/08/01 04:58:41;;;;;;;2.57;2.23;;;;;;;;;;5092443;28;20541;-70
2022/08/01 05:01:08;;;;;;;5.90;2.00;;;;;;;;;;5092232;28;20456;-71
2022/08/01 05:03:36;;;;;;;2.47;1.63;;;;;;;;;;5092205;28;20476;-70
2022/08/01 05:06:03;;;;;;;2.43;1.90;;;;;;;;;;5103089;28;20911;-71
2022/08/01 05:08:30;;;;;;;2.17;1.93;;;;;;;;;;5094121;27;20429;-71
2022/08/01 05:10:57;;;;;;;2.40;1.73;;;;;;;;;;5091719;28;20456;-71
2022/08/01 05:13:25;;;;;;;2.47;1.57;;;;;;;;;;5092326;28;20459;-71
2022/08/01 05:15:53;;;;;;;2.93;1.90;;;;;;;;;;5090776;28;20444;-71
2022/08/01 05:18:21;;;;;;;2.23;2.00;;;;;;;;;;5092120;28;20444;-70
2022/08/01 05:20:48;;;;;;;2.50;1.80;;;;;;;;;;5091477;28;20436;-71
2022/08/01 05:23:15;;;;;;;3.83;1.70;;;;;;;;;;5092202;28;20474;-70
2022/08/01 05:25:42;;;;;;;1.93;1.70;;;;;;;;;;5091556;28;20449;-70
2022/08/01 05:28:10;;;;;;;2.03;1.70;;;;;;;;;;5091803;28;20451;-70
2022/08/01 05:30:37;;;;;;;1.73;1.57;;;;;;;;;;5091258;28;20439;-70
2022/08/01 05:33:05;;;;;;;1.80;1.70;;;;;;;;;;5091847;28;20531;-70
2022/08/01 05:35:32;;;;;;;1.53;1.20;;;;;;;;;;5092083;28;20467;-70
2022/08/01 05:38:00;;;;;;;2.13;1.93;;;;;;;;;;5091254;28;20921;-70
2022/08/01 05:40:27;;;;;;;2.13;1.90;;;;;;;;;;5091626;28;20440;-70
2022/08/01 05:42:54;;;;;;;2.97;1.80;;;;;;;;;;5091495;28;20842;-70
2022/08/01 05:45:21;;;;;;;1.70;1.60;;;;;;;;;;5091862;28;20476;-70
2022/08/01 05:47:48;;;;;;;2.50;1.50;;;;;;;;;;5091216;28;20520;-70
2022/08/01 05:50:17;;;;;;;1.47;1.37;;;;;;;;;;5091432;28;20441;-70
2022/08/01 05:52:44;;;;;;;2.80;1.60;;;;;;;;;;5091286;28;20437;-70
2022/08/01 05:55:11;;;;;;;1.97;1.43;;;;;;;;;;5091448;28;20938;-70
2022/08/01 05:57:38;;;;;;;2.63;1.20;;;;;;;;;;5090951;28;20441;-71
2022/08/01 06:00:06;;;;;;;1.60;1.50;;;;;;;;;;5091403;28;20532;-71
2022/08/01 06:02:33;;;;;;;2.17;1.77;;;;;;;;;;5091743;28;20462;-72
2022/08/01 06:05:00;;;;;;;1.60;1.40;;;;;;;;;;5090500;28;20973;-72
2022/08/01 06:07:28;;;;;;;1.43;1.13;;;;;;;;;;5091599;28;20792;-71
2022/08/01 06:09:56;;;;;;;1.33;1.10;;;;;;;;;;5090456;28;20444;-70
2022/08/01 06:12:23;;;;;;;1.67;1.30;;;;;;;;;;5091491;28;20444;-71
2022/08/01 06:14:50;;;;;;;1.73;1.53;;;;;;;;;;5090670;28;20930;-71
2022/08/01 06:17:17;;;;;;;1.70;1.23;;;;;;;;;;5091025;28;20441;-71
2022/08/01 06:19:44;;;;;;;1.20;1.00;;;;;;;;;;5090261;28;20787;-71
2022/08/01 06:22:11;;;;;;;1.47;1.33;;;;;;;;;;5091071;28;20440;-71
2022/08/01 06:24:40;;;;;;;4.50;1.50;;;;;;;;;;5090555;28;20473;-71
2022/08/01 06:27:07;;;;;;;1.40;1.20;;;;;;;;;;5090894;28;20441;-70
2022/08/01 06:29:34;;;;;;;1.07;0.97;;;;;;;;;;5090852;28;20443;-70
2022/08/01 06:32:01;;;;;;;1.37;0.90;;;;;;;;;;5091398;28;20480;-72
2022/08/01 06:34:29;;;;;;;1.27;1.10;;;;;;;;;;5090670;28;20498;-71
2022/08/01 06:36:56;;;;;;;1.40;1.10;;;;;;;;;;5090556;28;20765;-71
2022/08/01 06:39:23;;;;;;;1.27;1.10;;;;;;;;;;5091804;28;20437;-71
2022/08/01 06:41:51;;;;;;;1.33;1.03;;;;;;;;;;5094445;28;20444;-72
2022/08/01 06:44:18;;;;;;;1.80;1.20;;;;;;;;;;5093641;28;20477;-72
2022/08/01 06:46:45;;;;;;;1.10;0.90;;;;;;;;;;5091187;28;20440;-72
2022/08/01 06:49:13;;;;;;;1.03;0.93;;;;;;;;;;5091083;28;20444;-71
2022/08/01 06:51:40;;;;;;;0.87;0.87;;;;;;;;;;5090197;28;20452;-71
2022/08/01 06:54:07;;;;;;;1.40;1.30;;;;;;;;;;5091290;28;20444;-70
2022/08/01 06:56:35;;;;;;;2.30;0.90;;;;;;;;;;5091348;28;20528;-71
2022/08/01 06:59:03;;;;;;;1.43;1.07;;;;;;;;;;5091083;28;20441;-71
2022/08/01 07:01:30;;;;;;;1.10;1.00;;;;;;;;;;5090519;28;20439;-71
2022/08/01 07:03:57;;;;;;;0.90;0.73;;;;;;;;;;5090315;28;20455;-71
2022/08/01 07:06:25;;;;;;;1.40;1.00;;;;;;;;;;5090859;28;20441;-71
2022/08/01 07:08:53;;;;;;;1.13;0.90;;;;;;;;;;5090101;28;20472;-71
2022/08/01 07:11:20;;;;;;;1.30;1.20;;;;;;;;;;5090470;28;20437;-71
2022/08/01 07:13:47;;;;;;;1.87;1.00;;;;;;;;;;5090328;28;20535;-72
2022/08/01 07:16:16;;;;;;;1.83;1.43;;;;;;;;;;5090407;28;20441;-71
2022/08/01 07:18:43;;;;;;;1.30;1.20;;;;;;;;;;5089849;28;20931;-72
2022/08/01 07:21:10;;;;;;;1.33;1.10;;;;;;;;;;5090029;28;20443;-72
2022/08/01 07:23:37;;;;;;;1.23;1.00;;;;;;;;;;5090087;28;20441;-71
2022/08/01 07:26:06;;;;;;;1.60;1.13;;;;;;;;;;5090355;28;21037;-71
2022/08/01 07:28:33;;;;;;;1.03;0.93;;;;;;;;;;5090960;28;20441;-72
2022/08/01 07:31:01;;;;;;;0.90;0.77;;;;;;;;;;5090440;28;20840;-72
2022/08/01 07:33:29;;;;;;;1.00;0.80;;;;;;;;;;5090116;28;20531;-72
2022/08/01 07:35:56;;;;;;;3.60;1.30;;;;;;;;;;5090018;28;20441;-71
2022/08/01 07:38:23;;;;;;;2.07;1.00;;;;;;;;;;5090330;28;20470;-71
2022/08/01 07:40:50;;;;;;;1.67;1.27;;;;;;;;;;5092612;28;20933;-71
2022/08/01 07:43:18;;;;;;;1.37;1.17;;;;;;;;;;5094415;28;20443;-71
2022/08/01 07:45:45;;;;;;;1.37;1.27;;;;;;;;;;5093301;28;20979;-71
2022/08/01 07:48:12;;;;;;;1.67;1.23;;;;;;;;;;5094175;28;20436;-71
2022/08/01 07:50:40;;;;;;;1.47;1.13;;;;;;;;;;5092967;28;20443;-71
2022/08/01 07:53:09;;;;;;;1.17;1.07;;;;;;;;;;5094096;28;20592;-71
2022/08/01 07:55:37;;;;;;;1.03;0.93;;;;;;;;;;5093685;28;20448;-70
2022/08/01 07:58:04;;;;;;;1.50;1.40;;;;;;;;;;5093969;28;20494;-71
2022/08/01 08:00:31;;;;;;;1.77;1.60;;;;;;;;;;5093741;28;20436;-71
2022/08/01 08:02:59;;;;;;;1.40;1.30;;;;;;;;;;5093356;28;20531;-71
2022/08/01 08:05:26;;;;;;;2.47;1.60;;;;;;;;;;5094045;28;20484;-71
2022/08/01 08:07:55;;;;;;;1.50;1.30;;;;;;;;;;5093268;28;20791;-71
2022/08/01 08:10:22;;;;;;;2.00;1.50;;;;;;;;;;5093175;28;20437;-71
2022/08/01 08:12:49;;;;;;;1.77;1.40;;;;;;;;;;5093139;28;20441;-71
2022/08/01 08:15:17;;;;;;;1.53;1.20;;;;;;;;;;5093867;28;20520;-71
2022/08/01 08:17:44;;;;;;;1.70;1.23;;;;;;;;;;5092935;28;20463;-71
2022/08/01 08:20:11;;;;;;;1.60;1.40;;;;;;;;;;5092904;28;20444;-71
2022/08/01 08:22:39;;;;;;;1.23;1.13;;;;;;;;;;5092928;28;20447;-71
2022/08/01 08:25:08;;;;;;;3.73;1.33;;;;;;;;;;5093241;28;20476;-71
2022/08/01 08:27:36;;;;;;;1.73;1.63;;;;;;;;;;5093380;28;20467;-68
2022/08/01 08:30:05;;;;;;;1.50;1.30;;;;;;;;;;5092752;28;20468;-71
2022/08/01 08:32:32;;;;;;;1.30;1.20;;;;;;;;;;5093033;28;20455;-71
2022/08/01 08:34:59;;;;;;;1.30;1.20;;;;;;;;;;5092330;28;20464;-71
2022/08/01 08:37:26;;;;;;;1.90;1.27;;;;;;;;;;5093207;28;20798;-71
2022/08/01 08:39:54;;;;;;;1.40;1.30;;;;;;;;;;5092284;28;20452;-71
2022/08/01 08:42:22;;;;;;;1.40;1.00;;;;;;;;;;5093203;28;20448;-71
2022/08/01 08:44:49;;;;;;;2.50;1.60;;;;;;;;;;5092350;28;20469;-71
2022/08/01 08:47:17;;;;;;;3.80;1.90;;;;;;;;;;5092734;28;20531;-71
2022/08/01 08:49:45;;;;;;;1.97;1.53;;;;;;;;;;5091665;28;20531;-71
2022/08/01 08:52:13;;;;;;;1.93;1.70;;;;;;;;;;5093029;28;20441;-71
2022/08/01 08:54:42;;;;;;;1.90;1.70;;;;;;;;;;5092289;28;20491;-71
2022/08/01 08:57:10;;;;;;;1.83;1.70;;;;;;;;;;5092820;28;20441;-71
2022/08/01 08:59:39;;;;;;;1.73;1.40;;;;;;;;;;5091765;28;20916;-71
2022/08/01 09:02:07;;;;;;;1.67;1.57;;;;;;;;;;5092497;28;20498;-71
2022/08/01 09:04:34;;;;;;;1.37;1.27;;;;;;;;;;5092574;28;20490;-71
2022/08/01 09:07:01;;;;;;;2.70;1.47;;;;;;;;;;5092920;28;20539;-71
2022/08/01 09:09:28;;;;;;;2.10;1.80;;;;;;;;;;5092321;28;20449;-71
2022/08/01 09:11:56;;;;;;;1.77;1.63;;;;;;;;;;5091799;28;20801;-71
2022/08/01 09:14:23;;;;;;;1.70;1.50;;;;;;;;;;5092670;28;20497;-71
2022/08/01 09:17:02;;;;;;;1.90;1.80;;;;;;;;;;5092016;28;20457;-72
2022/08/01 09:19:36;;;;;;;2.33;2.03;;;;;;;;;;5092159;28;20490;-74
2022/08/01 09:22:04;;;;;;;3.07;2.00;;;;;;;;;;5092848;28;20437;-73
2022/08/01 09:24:32;;;;;;;3.30;1.97;;;;;;;;;;5092659;28;20791;-72
2022/08/01 09:26:59;;;;;;;2.00;1.70;;;;;;;;;;5091821;28;20437;-72
2022/08/01 09:29:28;;;;;;;3.57;2.50;;;;;;;;;;5091657;28;20472;-72
2022/08/01 09:31:59;;;;;;;4.30;3.17;;;;;;;;;;5092018;28;20624;-71
2022/08/01 09:34:29;;;;;;;3.00;2.70;;;;;;;;;;5092098;28;20533;-71
2022/08/01 09:36:57;;;;;;;2.50;2.30;;;;;;;;;;5091385;28;20916;-71
2022/08/01 09:39:26;;;;;;;4.10;3.60;;;;;;;;;;5091741;28;20433;-71
2022/08/01 09:41:53;;;;;;;3.70;3.27;;;;;;;;;;5091791;28;20782;-71
2022/08/01 09:44:21;;;;;;;3.73;3.43;;;;;;;;;;5092150;28;20797;-71
2022/08/01 09:46:55;;;;;;;3.50;3.20;;;;;;;;;;5091673;28;20478;-72
2022/08/01 09:49:30;;;;;;;4.40;4.00;;;;;;;;;;5091750;28;20451;-72
2022/08/01 09:51:58;;;;;;;4.67;4.27;;;;;;;;;;5091222;28;20798;-72
2022/08/01 09:54:33;;;;;;;3.93;3.50;;;;;;;;;;5092162;28;20746;-71
2022/08/01 09:57:13;;;;;;;3.17;2.87;;;;;;;;;;5091244;28;20447;-71
2022/08/01 09:59:42;;;;;;;3.50;3.20;;;;;;;;;;5090851;28;20477;-72
2022/08/01 10:02:11;;;;;;;4.20;3.80;;;;;;;;;;5091145;28;20502;-72
2022/08/01 10:04:39;;;;;;;3.40;3.20;;;;;;;;;;5091122;28;20441;-72
2022/08/01 10:07:07;;;;;;;3.90;3.10;;;;;;;;;;5091795;28;20491;-71
2022/08/01 10:09:35;;;;;;;3.63;3.00;;;;;;;;;;5091350;28;20920;-71
2022/08/01 10:12:03;;;;;;;3.90;3.27;;;;;;;;;;5078715;28;20810;-72
2022/08/01 10:14:31;;;;;;;3.10;2.80;;;;;;;;;;5092051;28;20437;-71
2022/08/01 10:16:59;;;;;;;6.60;3.47;;;;;;;;;;5090822;28;20536;-71
2022/08/01 10:19:27;;;;;;;3.70;3.20;;;;;;;;;;5090677;28;20977;-71
2022/08/01 10:21:56;;;;;;;3.70;3.30;;;;;;;;;;5091163;28;20444;-71
2022/08/01 10:24:24;;;;;;;2.60;2.40;;;;;;;;;;5091751;28;20432;-71
2022/08/01 10:26:54;;;;;;;3.13;2.87;;;;;;;;;;5090804;28;20834;-72
2022/08/01 10:29:22;;;;;;;3.17;2.97;;;;;;;;;;5091022;28;20452;-72
2022/08/01 10:31:50;;;;;;;2.97;2.77;;;;;;;;;;5090951;28;20436;-71
2022/08/01 10:34:19;;;;;;;3.50;3.20;;;;;;;;;;5090927;28;20923;-72
2022/08/01 10:36:47;;;;;;;3.10;2.27;;;;;;;;;;5090473;28;20436;-71
2022/08/01 10:39:16;;;;;;;3.63;2.27;;;;;;;;;;5090899;28;20444;-72
2022/08/01 10:41:44;;;;;;;2.50;2.27;;;;;;;;;;5090666;28;20447;-72
2022/08/01 10:44:13;;;;;;;2.20;2.10;;;;;;;;;;5091241;28;20444;-72
2022/08/01 10:46:41;;;;;;;2.40;2.20;;;;;;;;;;5090928;28;20480;-72
2022/08/01 10:49:10;;;;;;;2.43;2.23;;;;;;;;;;5093966;28;20505;-72
2022/08/01 10:51:38;;;;;;;2.30;2.10;;;;;;;;;;5097790;28;20969;-72
2022/08/01 10:54:08;;;;;;;2.70;2.33;;;;;;;;;;5098381;28;20451;-71
2022/08/01 10:56:41;;;;;;;1.93;1.73;;;;;;;;;;5092253;28;20445;-72
2022/08/01 10:59:08;;;;;;;1.73;1.63;;;;;;;;;;5091154;28;20433;-72
2022/08/01 11:01:36;;;;;;;2.33;2.10;;;;;;;;;;5090939;28;20437;-69
2022/08/01 11:04:05;;;;;;;2.30;1.93;;;;;;;;;;5091343;28;20450;-72
2022/08/01 11:06:40;;;;;;;1.90;1.80;;;;;;;;;;5091162;28;20484;-72
2022/08/01 11:09:17;;;;;;;2.70;2.50;;;;;;;;;;5090680;28;20436;-72
2022/08/01 11:11:59;;;;;;;2.70;2.50;;;;;;;;;;5090490;28;20438;-74
2022/08/01 11:14:27;;;;;;;2.80;2.60;;;;;;;;;;5093378;28;20918;-72
2022/08/01 11:16:54;;;;;;;3.17;2.70;;;;;;;;;;5094183;28;20444;-72
2022/08/01 11:19:21;;;;;;;2.30;2.10;;;;;;;;;;5094161;28;20785;-73
2022/08/01 11:22:03;;;;;;;3.10;2.80;;;;;;;;;;5094615;28;20453;-73
2022/08/01 11:24:51;;;;;;;2.30;2.10;;;;;;;;;;5095005;28;20527;-73
2022/08/01 11:27:20;;;;;;;2.43;2.23;;;;;;;;;;5094829;28;20554;-72
2022/08/01 11:30:15;;;;;;;3.03;2.70;;;;;;;;;;5093854;28;20436;-73
2022/08/01 11:32:47;;;;;;;2.33;2.17;;;;;;;;;;5093733;28;20447;-72
2022/08/01 11:35:14;;;;;;;2.30;2.10;;;;;;;;;;5097498;28;20900;-72
2022/08/01 11:37:41;;;;;;;2.30;2.10;;;;;;;;;;5093687;28;20432;-72
2022/08/01 11:40:18;;;;;;;2.40;2.20;;;;;;;;;;5093864;28;20630;-72
2022/08/01 11:42:46;;;;;;;1.80;1.60;;;;;;;;;;5080779;28;20466;-72
2022/08/01 11:45:14;;;;;;;1.83;1.73;;;;;;;;;;5094433;28;20540;-72
2022/08/01 11:47:44;;;;;;;1.80;1.70;;;;;;;;;;5093867;28;20526;-73
2022/08/01 11:50:26;;;;;;;1.60;1.50;;;;;;;;;;5093881;28;20432;-72
2022/08/01 11:52:58;;;;;;;2.03;1.80;;;;;;;;;;5093671;28;20518;-72
2022/08/01 11:55:26;;;;;;;2.30;2.10;;;;;;;;;;5094048;28;20501;-72
2022/08/01 11:58:00;;;;;;;2.47;2.27;;;;;;;;;;5094334;28;20788;-72
2022/08/01 12:00:27;;;;;;;2.07;1.87;;;;;;;;;;5094136;28;20440;-72
2022/08/01 12:02:58;;;;;;;2.27;2.10;;;;;;;;;;5094301;28;20451;-73
2022/08/01 12:05:26;;;;;;;2.20;1.93;;;;;;;;;;5103880;28;20450;-72
2022/08/01 12:07:54;;;;;;;4.00;1.80;;;;;;;;;;5110795;28;20930;-73
2022/08/01 12:10:23;;;;;;;1.93;1.80;;;;;;;;;;5105828;28;20448;-73
2022/08/01 12:12:51;;;;;;;2.10;1.90;;;;;;;;;;5106083;28;20447;-73
2022/08/01 12:15:21;;;;;;;2.00;1.90;;;;;;;;;;5107249;28;20462;-72
2022/08/01 12:17:49;;;;;;;2.20;2.00;;;;;;;;;;5106651;28;20504;-73
2022/08/01 12:20:17;;;;;;;3.53;2.20;;;;;;;;;;5104438;28;20870;-72
2022/08/01 12:22:44;;;;;;;1.87;1.77;;;;;;;;;;5094382;28;20774;-71
2022/08/01 12:25:12;;;;;;;2.30;2.13;;;;;;;;;;5093837;28;20584;-72
2022/08/01 12:27:40;;;;;;;2.50;2.30;;;;;;;;;;5093034;28;20475;-72
2022/08/01 12:30:09;;;;;;;1.80;1.70;;;;;;;;;;5093379;28;20468;-71
2022/08/01 12:32:38;;;;;;;2.00;1.90;;;;;;;;;;5093015;28;20478;-69
2022/08/01 12:35:06;;;;;;;2.23;1.90;;;;;;;;;;5093300;28;20500;-71
2022/08/01 12:37:34;;;;;;;1.73;1.63;;;;;;;;;;5093146;28;20441;-72
2022/08/01 12:40:01;;;;;;;2.10;1.90;;;;;;;;;;5093231;28;20466;-71
2022/08/01 12:42:28;;;;;;;1.83;1.70;;;;;;;;;;5093356;28;20448;-71
2022/08/01 12:44:56;;;;;;;2.10;1.90;;;;;;;;;;5092823;28;20665;-72
2022/08/01 12:47:24;;;;;;;1.80;1.70;;;;;;;;;;5092871;28;20512;-71
2022/08/01 12:49:53;;;;;;;2.50;2.00;;;;;;;;;;5092162;28;20528;-72
2022/08/01 12:52:22;;;;;;;2.20;2.00;;;;;;;;;;5093097;28;20437;-72
2022/08/01 12:55:01;;;;;;;1.50;1.40;;;;;;;;;;5092618;28;20466;-72
2022/08/01 12:57:29;;;;;;;2.00;1.80;;;;;;;;;;5093065;28;20451;-72
2022/08/01 13:00:06;;;;;;;2.10;1.90;;;;;;;;;;5091638;28;20533;-72
2022/08/01 13:02:34;;;;;;;2.10;1.90;;;;;;;;;;5093136;28;20440;-72
2022/08/01 13:05:02;;;;;;;2.23;2.03;;;;;;;;;;5092830;28;20471;-72
2022/08/01 13:07:36;;;;;;;1.70;1.53;;;;;;;;;;5092818;28;20498;-72
2022/08/01 13:10:04;;;;;;;1.73;1.30;;;;;;;;;;5092594;28;20432;-72
2022/08/01 13:12:31;;;;;;;1.83;1.63;;;;;;;;;;5093005;28;20783;-72
2022/08/01 13:14:58;;;;;;;1.50;1.20;;;;;;;;;;5092168;28;20441;-71
2022/08/01 13:17:32;;;;;;;1.77;1.57;;;;;;;;;;5092401;28;20454;-72
2022/08/01 13:20:00;;;;;;;1.83;1.73;;;;;;;;;;5077966;28;20433;-72
2022/08/01 13:22:35;;;;;;;1.70;1.60;;;;;;;;;;5092302;28;20891;-71
2022/08/01 13:25:12;;;;;;;1.93;1.73;;;;;;;;;;5092793;28;20508;-71
2022/08/01 13:27:39;;;;;;;2.03;1.50;;;;;;;;;;5091561;28;20483;-71
2022/08/01 13:30:13;;;;;;;2.27;1.60;;;;;;;;;;5091843;28;20452;-71
2022/08/01 13:32:40;;;;;;;1.93;1.83;;;;;;;;;;5091556;28;20445;-71
2022/08/01 13:35:08;;;;;;;1.37;1.27;;;;;;;;;;5091979;28;20475;-71
2022/08/01 13:37:36;;;;;;;4.17;1.70;;;;;;;;;;5091276;28;20523;-72
2022/08/01 13:40:04;;;;;;;1.73;1.63;;;;;;;;;;5092042;28;20527;-72
2022/08/01 13:42:31;;;;;;;1.80;1.50;;;;;;;;;;5091889;28;20982;-71
2022/08/01 13:44:59;;;;;;;3.37;2.20;;;;;;;;;;5091420;28;20448;-72
2022/08/01 13:47:26;;;;;;;1.60;1.50;;;;;;;;;;5091895;28;20476;-71
2022/08/01 13:49:53;;;;;;;2.13;1.77;;;;;;;;;;5090531;28;20447;-71
2022/08/01 13:52:20;;;;;;;1.83;1.70;;;;;;;;;;5091883;28;20436;-72
2022/08/01 13:54:49;;;;;;;1.73;1.63;;;;;;;;;;5091477;28;20217;-72
2022/08/01 13:57:16;;;;;;;2.13;1.80;;;;;;;;;;5078400;28;20202;-72
2022/08/01 13:59:43;;;;;;;2.30;2.03;;;;;;;;;;5090900;28;20309;-70
2022/08/01 14:02:10;;;;;;;1.87;1.60;;;;;;;;;;5091770;28;20539;-71
2022/08/01 14:04:37;;;;;;;1.60;1.50;;;;;;;;;;5091040;28;20515;-71
2022/08/01 14:07:04;;;;;;;2.00;1.70;;;;;;;;;;5091606;28;20549;-71
2022/08/01 14:09:33;;;;;;;2.00;1.80;;;;;;;;;;5091050;28;20194;-71
2022/08/01 14:12:01;;;;;;;2.63;2.00;;;;;;;;;;5090838;28;20206;-71
2022/08/01 14:14:28;;;;;;;2.50;1.83;;;;;;;;;;5091531;28;20216;-72
2022/08/01 14:16:56;;;;;;;2.10;1.50;;;;;;;;;;5090735;28;20883;-71
2022/08/01 14:19:23;;;;;;;1.43;1.17;;;;;;;;;;5090907;28;20204;-71
2022/08/01 14:21:52;;;;;;;2.53;1.90;;;;;;;;;;5090963;28;20237;-71
2022/08/01 14:24:19;;;;;;;1.87;1.70;;;;;;;;;;5091484;28;20198;-72
2022/08/01 14:26:46;;;;;;;1.77;1.67;;;;;;;;;;5090666;28;20224;-72
2022/08/01 14:29:15;;;;;;;1.40;1.30;;;;;;;;;;5090958;28;20286;-72
2022/08/01 14:31:42;;;;;;;1.90;1.50;;;;;;;;;;5090866;28;20198;-71
2022/08/01 14:34:09;;;;;;;1.77;1.60;;;;;;;;;;5091130;28;20227;-71
2022/08/01 14:36:36;;;;;;;1.70;1.60;;;;;;;;;;5090522;28;20263;-69
2022/08/01 14:39:03;;;;;;;1.60;1.15;;;;;;;;;;5090959;28;20606;-72
2022/08/01 14:41:30;;;;;;;1.65;1.55;;;;;;;;;;5091001;28;20649;-72
2022/08/01 14:43:59;;;;;;;1.70;1.50;;;;;;;;;;5090790;28;20190;-72
2022/08/01 14:46:27;;;;;;;1.45;1.35;;;;;;;;;;5091207;28;20205;-72
2022/08/01 14:48:55;;;;;;;2.72;1.63;;;;;;;;;;5093692;28;20670;-72
2022/08/01 14:51:22;;;;;;;1.80;1.70;;;;;;;;;;5097772;28;20652;-72